CYFT

Makkovik Airport

Makkovik, Canada
METAR CYFT 191500Z 28012G17KT 15SM FEW025 SCT250 18/07 A3001 RMK CU1CS4 TR CU SLP167 DENSITY ALT 600FT
Observed Flight Rules
Aug-19 @ 15:00 UTC (38 minutes ago) Visual Flight Rules
Wind Visibility Clouds
280° at 12 knots
 Gusting to 17 knots
15 miles
  • Few at 2,500' AGL
  • Scattered at 25,000' AGL
Temperatures Readings
Current 18°C / 64°F
Dewpoint 7°C / 45°F
Humidity 49%
Altimeter 30.01" Hg
Pressure 1016.7 hPa
Elevation 71
METAR CYFT 191500Z 28012G17KT 15SM FEW025 SCT250 18/07 A3001 RMK CU1CS4 TR CU SLP167 DENSITY ALT 600FT
Observed Flight Rules
Aug-19 @ 15:00 UTC
(38 minutes ago)
VFR
Wind Visibility
280° at 12 knots
 Gusting to 17 knots
15 miles
Clouds
  • Few at 2,500' AGL
  • Scattered at 25,000' AGL
Temperature Dewpoint
18°C / 64°F 7°C / 45°F
Humidity Altimeter Pressure
49% 30.01" Hg 1016.7 hPa